PAGY Airport Information

Runway Information
Runway 02 Length 3550 ft width 75 ft
Elevation 19 ft Threshold 0 ft Heading 44
Runway 20 Length 3550 ft Width 75 ft
Elevation 44 ft Threshold 0 ft Heading 224
Airport Frequencies
Airport Navaids
Airport Weather Information & NOTAM
ADDS - METARS form results

(2041 UTC 23 February 2019)
Data provider http://aviationweather.gov/metar/data/
 
METAR text: PAGY 231953Z AUTO 04021G29KT 5SM HZ CLR M04/M17 A3062 RMK AO2 PK WND 04033/1930 SLP368 T10391167 TSNO
Conditions at: PAGY (SKAGWAY , AK, US) observed 1953 UTC 23 February 2019
Temperature: -3.9°C (25°F)
Dewpoint: -16.7°C ( 2°F) [RH = 36%]
Pressure (altimeter): 30.62 inches Hg (1037.0 mb)
[Sea-level pressure: 1036.8 mb]
Winds: from the NE (40 degrees) at 24 MPH (21 knots; 10.8 m/s)
gusting to 33 MPH (29 knots; 14.9 m/s)
Visibility: 5 miles ( 8 km)
Ceiling: at least 12,000 feet AGL
Clouds: sky clear below 12,000 feet AGL
Weather: HZ  (haze)

Forecast for: PAGY (SKAGWAY , AK, US)
Text: PAGY 231720Z 2318/2418 03018G28KT P6SM SKC AMD LTD TO CLD VIS AND WIND
Forecast period: 1800 UTC 23 February 2019 to 1800 UTC 24 February 2019
Forecast type: FROM: standard forecast or significant change
Winds: from the NNE (30 degrees) at 21 MPH (18 knots; 9.3 m/s)
gusting to 32 MPH (28 knots; 14.4 m/s)
Visibility: 6 or more miles 10+ km)
Clouds: clear skies
Weather: no significant weather forecast for this period